createdAt,value
2023-05-05T00:00:02.404Z,97
2023-05-05T00:01:02.626Z,95
2023-05-05T00:03:02.312Z,97
2023-05-05T00:04:02.388Z,96
2023-05-05T00:05:02.256Z,97
2023-05-05T00:06:02.311Z,97
2023-05-05T00:07:02.329Z,97
2023-05-05T00:08:02.275Z,97
2023-05-05T00:09:02.255Z,96
2023-05-05T00:10:02.305Z,97
2023-05-05T00:11:02.263Z,100
2023-05-05T00:12:02.141Z,97
2023-05-05T00:13:02.243Z,98
2023-05-05T00:14:02.010Z,99
2023-05-05T00:15:01.982Z,100
2023-05-05T00:16:02.054Z,98
2023-05-05T00:18:02.133Z,100
2023-05-05T00:19:01.914Z,100
2023-05-05T00:20:01.817Z,98
2023-05-05T00:21:01.912Z,99
2023-05-05T00:22:01.773Z,99
2023-05-05T00:23:01.745Z,100
2023-05-05T00:24:01.644Z,100
2023-05-05T00:25:01.579Z,100
2023-05-05T00:26:01.500Z,100
2023-05-05T00:27:01.613Z,100
2023-05-05T00:28:01.445Z,100
2023-05-05T00:29:02.560Z,100
2023-05-05T00:30:02.451Z,100
2023-05-05T00:31:02.681Z,100
2023-05-05T00:33:02.696Z,100
2023-05-05T00:34:01.504Z,100
2023-05-05T00:35:01.548Z,100
2023-05-05T00:36:02.529Z,100
2023-05-05T00:37:02.448Z,100
2023-05-05T00:38:02.520Z,100
2023-05-05T00:39:02.430Z,100
2023-05-05T00:40:02.523Z,100
2023-05-05T00:41:02.365Z,100
2023-05-05T00:42:02.435Z,100
2023-05-05T00:43:02.304Z,100
2023-05-05T00:44:02.428Z,100
2023-05-05T00:45:02.267Z,100
2023-05-05T00:46:02.528Z,100
2023-05-05T00:47:02.344Z,100
2023-05-05T00:48:02.546Z,100
2023-05-05T00:49:02.451Z,100
2023-05-05T00:50:02.498Z,100
2023-05-05T00:51:02.423Z,100
2023-05-05T00:52:02.518Z,100
2023-05-05T00:53:01.454Z,100
2023-05-05T00:54:02.513Z,100
2023-05-05T00:55:02.432Z,100
2023-05-05T00:56:02.478Z,100
2023-05-05T00:57:02.372Z,100
2023-05-05T00:58:02.483Z,100
2023-05-05T00:59:02.357Z,100
2023-05-05T01:00:02.600Z,100
2023-05-05T01:01:02.481Z,100
2023-05-05T01:03:02.349Z,100
2023-05-05T01:04:02.330Z,100
2023-05-05T01:05:02.089Z,100
2023-05-05T01:06:02.169Z,100
2023-05-05T01:07:02.050Z,100
2023-05-05T01:08:01.999Z,100
2023-05-05T01:09:02.142Z,100
2023-05-05T01:10:20.524Z,100
2023-05-05T01:11:01.676Z,100
2023-05-05T01:12:01.763Z,100
2023-05-05T01:13:01.717Z,100
2023-05-05T01:14:01.662Z,99
2023-05-05T01:15:01.531Z,100
2023-05-05T01:16:01.724Z,100
2023-05-05T01:17:02.344Z,100
2023-05-05T01:18:02.282Z,100
2023-05-05T01:19:02.304Z,100
2023-05-05T01:20:02.230Z,100
2023-05-05T01:21:02.091Z,100
2023-05-05T01:22:02.271Z,100
2023-05-05T01:23:02.217Z,100
2023-05-05T01:24:02.108Z,100
2023-05-05T01:25:02.149Z,100
2023-05-05T01:26:02.055Z,100
2023-05-05T01:27:02.017Z,100
2023-05-05T01:28:02.156Z,100
2023-05-05T01:29:02.085Z,100
2023-05-05T01:30:02.056Z,100
2023-05-05T01:31:02.083Z,100
2023-05-05T01:32:02.244Z,100
2023-05-05T01:33:02.012Z,100
2023-05-05T01:34:02.052Z,100
2023-05-05T01:35:01.946Z,100
2023-05-05T01:36:01.904Z,100
2023-05-05T01:37:01.957Z,100
2023-05-05T01:38:01.807Z,100
2023-05-05T01:39:01.876Z,100
2023-05-05T01:40:01.714Z,100
2023-05-05T01:41:01.781Z,100
2023-05-05T01:42:01.616Z,100
2023-05-05T01:43:01.688Z,100
2023-05-05T01:44:01.538Z,100
2023-05-05T01:45:01.571Z,100
2023-05-05T01:46:01.572Z,100
2023-05-05T01:47:01.678Z,100
2023-05-05T01:48:01.718Z,100
2023-05-05T01:49:01.679Z,100
2023-05-05T01:50:01.658Z,100
2023-05-05T01:51:01.461Z,100
2023-05-05T01:52:01.529Z,100
2023-05-05T01:53:02.512Z,100
2023-05-05T01:54:02.393Z,100
2023-05-05T01:55:02.416Z,100
2023-05-05T01:56:02.315Z,100
2023-05-05T01:57:02.395Z,100
2023-05-05T01:58:02.253Z,100
2023-05-05T01:59:02.339Z,100
2023-05-05T02:00:02.274Z,100
2023-05-05T02:01:02.089Z,100
2023-05-05T02:02:02.253Z,100
2023-05-05T02:03:02.435Z,100
2023-05-05T02:04:02.274Z,100
2023-05-05T02:05:02.381Z,100
2023-05-05T02:06:02.242Z,100
2023-05-05T02:07:02.333Z,100
2023-05-05T02:08:02.245Z,100
2023-05-05T02:09:02.101Z,100
2023-05-05T02:10:02.124Z,100
2023-05-05T02:11:02.080Z,100
2023-05-05T02:12:01.919Z,100
2023-05-05T02:13:02.063Z,100
2023-05-05T02:14:01.872Z,100
2023-05-05T02:15:01.914Z,100
2023-05-05T02:16:01.787Z,100
2023-05-05T02:17:01.910Z,100
2023-05-05T02:18:02.231Z,100
2023-05-05T02:19:01.956Z,100
2023-05-05T02:20:01.939Z,100
2023-05-05T02:21:01.912Z,100
2023-05-05T02:22:01.883Z,100
2023-05-05T02:23:01.744Z,100
2023-05-05T02:24:01.694Z,100
2023-05-05T02:25:01.757Z,100
2023-05-05T02:26:01.647Z,100
2023-05-05T02:27:01.671Z,100
2023-05-05T02:28:01.556Z,100
2023-05-05T02:29:01.573Z,100
2023-05-05T02:30:02.656Z,100
2023-05-05T02:31:02.419Z,100
2023-05-05T02:33:01.726Z,100
2023-05-05T02:34:02.504Z,100
2023-05-05T02:35:02.389Z,100
2023-05-05T02:36:02.429Z,100
2023-05-05T02:37:02.314Z,100
2023-05-05T02:38:02.412Z,100
2023-05-05T02:39:02.297Z,100
2023-05-05T02:40:02.361Z,100
2023-05-05T02:41:02.210Z,100
2023-05-05T02:42:02.224Z,100
2023-05-05T02:43:02.270Z,100
2023-05-05T02:44:02.088Z,100
2023-05-05T02:45:02.118Z,100
2023-05-05T02:46:02.260Z,100
2023-05-05T02:47:02.112Z,100
2023-05-05T02:48:02.242Z,100
2023-05-05T02:49:02.011Z,100
2023-05-05T02:50:01.934Z,100
2023-05-05T02:51:01.974Z,100
2023-05-05T02:52:01.830Z,100
2023-05-05T02:53:01.903Z,100
2023-05-05T02:54:01.759Z,100
2023-05-05T02:55:01.823Z,100
2023-05-05T02:56:01.639Z,100
2023-05-05T02:57:01.703Z,100
2023-05-05T02:58:01.550Z,100
2023-05-05T02:59:01.596Z,100
2023-05-05T03:00:01.529Z,100
2023-05-05T03:01:01.620Z,100
2023-05-05T03:02:01.490Z,100
2023-05-05T03:03:02.682Z,100
2023-05-05T03:04:02.465Z,100
2023-05-05T03:05:02.525Z,100
2023-05-05T03:06:02.389Z,100
2023-05-05T03:07:02.398Z,100
2023-05-05T03:08:02.346Z,100
2023-05-05T03:09:02.399Z,100
2023-05-05T03:10:02.296Z,100
2023-05-05T03:11:02.315Z,100
2023-05-05T03:12:02.217Z,100
2023-05-05T03:13:02.345Z,100
2023-05-05T03:14:02.218Z,100
2023-05-05T03:15:02.141Z,100
2023-05-05T03:16:02.227Z,100
2023-05-05T03:17:02.230Z,100
2023-05-05T03:18:02.170Z,100
2023-05-05T03:19:02.168Z,100
2023-05-05T03:20:04.216Z,100
2023-05-05T03:21:01.839Z,100
2023-05-05T03:22:02.022Z,100
2023-05-05T03:23:01.761Z,100
2023-05-05T03:24:01.823Z,100
2023-05-05T03:25:01.677Z,100
2023-05-05T03:26:01.703Z,100
2023-05-05T03:27:01.556Z,100
2023-05-05T03:28:01.593Z,100
2023-05-05T03:29:01.425Z,100
2023-05-05T03:30:02.461Z,100
2023-05-05T03:31:02.386Z,100
2023-05-05T03:32:02.312Z,100
2023-05-05T03:33:02.500Z,100
2023-05-05T03:34:02.230Z,100
2023-05-05T03:35:02.244Z,100
2023-05-05T03:36:02.206Z,100
2023-05-05T03:37:02.106Z,100
2023-05-05T03:38:02.100Z,100
2023-05-05T03:39:01.953Z,100
2023-05-05T03:40:01.916Z,100
2023-05-05T03:41:01.972Z,100
2023-05-05T03:42:01.840Z,100
2023-05-05T03:43:01.872Z,100
2023-05-05T03:44:01.759Z,100
2023-05-05T03:45:01.754Z,100
2023-05-05T03:46:01.698Z,100
2023-05-05T03:47:01.759Z,100
2023-05-05T03:48:01.958Z,100
2023-05-05T03:49:01.834Z,100
2023-05-05T03:50:01.940Z,100
2023-05-05T03:51:01.702Z,100
2023-05-05T03:52:01.783Z,100
2023-05-05T03:53:01.580Z,100
2023-05-05T03:54:01.672Z,100
2023-05-05T03:55:02.286Z,100
2023-05-05T03:56:02.145Z,100
2023-05-05T03:57:02.160Z,100
2023-05-05T03:58:02.047Z,100
2023-05-05T03:59:01.987Z,100
2023-05-05T04:00:02.405Z,100
2023-05-05T04:01:02.182Z,100
2023-05-05T04:02:02.065Z,100
2023-05-05T04:03:02.291Z,100
2023-05-05T04:04:02.262Z,100
2023-05-05T04:05:02.185Z,100
2023-05-05T04:06:02.038Z,100
2023-05-05T04:07:01.982Z,100
2023-05-05T04:08:01.931Z,100
2023-05-05T04:09:01.957Z,100
2023-05-05T04:10:01.868Z,100
2023-05-05T04:11:02.025Z,100
2023-05-05T04:12:01.798Z,100
2023-05-05T04:13:01.902Z,100
2023-05-05T04:14:01.659Z,100
2023-05-05T04:15:01.668Z,100
2023-05-05T04:16:01.703Z,100
2023-05-05T04:17:01.551Z,100
2023-05-05T04:18:01.716Z,100
2023-05-05T04:19:01.484Z,100
2023-05-05T04:20:02.501Z,100
2023-05-05T04:21:02.409Z,100
2023-05-05T04:22:02.463Z,100
2023-05-05T04:23:02.357Z,100
2023-05-05T04:24:02.458Z,100
2023-05-05T04:25:02.425Z,100
2023-05-05T04:26:02.463Z,100
2023-05-05T04:27:02.387Z,100
2023-05-05T04:28:02.466Z,100
2023-05-05T04:29:02.360Z,100
2023-05-05T04:30:02.411Z,100
2023-05-05T04:31:02.446Z,100
2023-05-05T04:32:02.304Z,100
2023-05-05T04:33:02.421Z,100
2023-05-05T04:34:02.286Z,100
2023-05-05T04:35:02.310Z,100
2023-05-05T04:36:02.263Z,100
2023-05-05T04:37:02.124Z,100
2023-05-05T04:38:02.194Z,100
2023-05-05T04:39:02.092Z,100
2023-05-05T04:40:01.924Z,100
2023-05-05T04:41:01.994Z,100
2023-05-05T04:42:01.850Z,100
2023-05-05T04:43:01.923Z,100
2023-05-05T04:44:01.772Z,100
2023-05-05T04:45:01.847Z,100
2023-05-05T04:46:01.728Z,100
2023-05-05T04:47:01.995Z,100
2023-05-05T04:48:02.085Z,100
2023-05-05T04:49:01.847Z,100
2023-05-05T04:50:01.907Z,100
2023-05-05T04:51:01.862Z,100
2023-05-05T04:52:01.721Z,100
2023-05-05T04:53:01.646Z,100
2023-05-05T04:54:01.699Z,100
2023-05-05T04:55:01.653Z,100
2023-05-05T04:56:01.669Z,100
2023-05-05T04:57:01.531Z,100
2023-05-05T04:58:01.553Z,100
2023-05-05T04:59:01.487Z,100
2023-05-05T05:00:02.501Z,100
2023-05-05T05:01:02.352Z,100
2023-05-05T05:03:02.040Z,100
2023-05-05T05:04:01.918Z,100
2023-05-05T05:05:01.852Z,100
2023-05-05T05:06:01.867Z,100
2023-05-05T05:07:01.770Z,100
2023-05-05T05:08:01.831Z,100
2023-05-05T05:09:01.737Z,100
2023-05-05T05:10:01.693Z,100
2023-05-05T05:11:01.580Z,100
2023-05-05T05:12:01.633Z,100
2023-05-05T05:13:01.505Z,100
2023-05-05T05:14:02.574Z,100
2023-05-05T05:15:02.417Z,100
2023-05-05T05:16:02.523Z,100
2023-05-05T05:18:01.679Z,100
2023-05-05T05:19:02.548Z,100
2023-05-05T05:20:02.477Z,100
2023-05-05T05:21:02.508Z,100
2023-05-05T05:22:02.381Z,100
2023-05-05T05:23:02.422Z,100
2023-05-05T05:24:02.282Z,100
2023-05-05T05:25:02.341Z,100
2023-05-05T05:26:02.319Z,100
2023-05-05T05:27:02.310Z,100
2023-05-05T05:28:11.125Z,100
2023-05-05T05:29:01.853Z,100
2023-05-05T05:30:01.866Z,100
2023-05-05T05:31:01.778Z,100
2023-05-05T05:32:01.984Z,100
2023-05-05T05:33:01.959Z,99
2023-05-05T05:34:01.755Z,100
2023-05-05T05:35:01.811Z,98
2023-05-05T05:36:01.650Z,95
2023-05-05T05:37:01.771Z,95
2023-05-05T05:38:01.510Z,94
2023-05-05T05:39:01.537Z,92
2023-05-05T05:40:02.492Z,89
2023-05-05T05:41:01.418Z,90
2023-05-05T05:42:02.510Z,92
2023-05-05T05:43:02.371Z,94
2023-05-05T05:44:02.396Z,91
2023-05-05T05:45:02.333Z,88
2023-05-05T05:46:02.391Z,86
2023-05-05T05:48:02.106Z,86
2023-05-05T05:49:01.954Z,84
2023-05-05T05:50:01.999Z,83
2023-05-05T05:51:02.012Z,87
2023-05-05T05:52:01.867Z,88
2023-05-05T05:53:01.969Z,82
2023-05-05T05:54:01.867Z,80
2023-05-05T05:55:01.572Z,82
2023-05-05T05:56:01.617Z,80
2023-05-05T05:57:01.441Z,81
2023-05-05T05:58:01.546Z,81
2023-05-05T05:59:01.538Z,80
2023-05-05T06:00:02.658Z,78
2023-05-05T06:01:02.402Z,79
2023-05-05T06:03:02.817Z,85
2023-05-05T06:04:02.021Z,80
2023-05-05T06:05:01.957Z,79
2023-05-05T06:06:01.820Z,79
2023-05-05T06:07:01.870Z,80
2023-05-05T06:08:01.809Z,82
2023-05-05T06:09:01.838Z,82
2023-05-05T06:10:26.239Z,80
2023-05-05T06:11:02.128Z,84
2023-05-05T06:12:02.170Z,84
2023-05-05T06:13:02.073Z,83
2023-05-05T06:14:01.972Z,76
2023-05-05T06:15:02.016Z,75
2023-05-05T06:16:01.979Z,75
2023-05-05T06:17:02.101Z,74
2023-05-05T06:18:02.179Z,73
2023-05-05T06:19:01.888Z,72
2023-05-05T06:20:01.910Z,71
2023-05-05T06:21:01.786Z,70
2023-05-05T06:22:01.834Z,72
2023-05-05T06:23:01.691Z,69
2023-05-05T06:24:01.719Z,69
2023-05-05T06:25:01.566Z,70
2023-05-05T06:26:01.635Z,69
2023-05-05T06:27:01.488Z,70
2023-05-05T06:28:01.541Z,68
2023-05-05T06:29:02.514Z,69
2023-05-05T06:30:02.364Z,69
2023-05-05T06:31:02.514Z,69
2023-05-05T06:33:02.627Z,67
2023-05-05T06:34:02.399Z,68
2023-05-05T06:35:02.514Z,69
2023-05-05T06:36:02.327Z,67
2023-05-05T06:37:02.444Z,67
2023-05-05T06:38:02.315Z,68
2023-05-05T06:39:02.365Z,69
2023-05-05T06:40:02.243Z,69
2023-05-05T06:41:02.286Z,67
2023-05-05T06:42:02.321Z,67
2023-05-05T06:43:02.115Z,68
2023-05-05T06:44:02.189Z,66
2023-05-05T06:45:02.054Z,66
2023-05-05T06:46:01.959Z,68
2023-05-05T06:47:02.125Z,71
2023-05-05T06:48:02.215Z,71
2023-05-05T06:49:01.955Z,70
2023-05-05T06:50:01.937Z,69
2023-05-05T06:51:03.108Z,70
2023-05-05T06:52:01.820Z,68
2023-05-05T06:53:01.899Z,73
2023-05-05T06:54:01.730Z,71
2023-05-05T06:55:01.731Z,68
2023-05-05T06:56:01.526Z,68
2023-05-05T06:57:01.513Z,67
2023-05-05T06:58:02.533Z,66
2023-05-05T06:59:02.383Z,67
2023-05-05T07:00:03.037Z,70
2023-05-05T07:01:01.949Z,70
2023-05-05T07:02:02.393Z,68
2023-05-05T07:03:02.538Z,69
2023-05-05T07:04:02.501Z,68
2023-05-05T07:05:02.441Z,68
2023-05-05T07:06:02.260Z,67
2023-05-05T07:07:02.381Z,68
2023-05-05T07:08:02.275Z,66
2023-05-05T07:09:02.301Z,66
2023-05-05T07:10:02.250Z,65
2023-05-05T07:11:02.123Z,66
2023-05-05T07:12:02.209Z,63
2023-05-05T07:13:02.310Z,65
2023-05-05T07:14:02.043Z,63
2023-05-05T07:15:23.763Z,64
2023-05-05T07:16:02.018Z,63
2023-05-05T07:17:01.969Z,63
2023-05-05T07:18:02.054Z,62
2023-05-05T07:19:02.031Z,63
2023-05-05T07:20:01.975Z,62
2023-05-05T07:21:02.030Z,63
2023-05-05T07:22:01.879Z,61
2023-05-05T07:23:01.972Z,62
2023-05-05T07:24:01.828Z,60
2023-05-05T07:25:01.884Z,62
2023-05-05T07:26:01.699Z,63
2023-05-05T07:27:01.728Z,59
2023-05-05T07:28:01.577Z,58
2023-05-05T07:29:01.638Z,59
2023-05-05T07:30:01.473Z,59
2023-05-05T07:31:01.903Z,61
2023-05-05T07:32:02.384Z,59
2023-05-05T07:33:02.307Z,58
2023-05-05T07:34:02.251Z,58
2023-05-05T07:35:02.088Z,60
2023-05-05T07:36:02.029Z,58
2023-05-05T07:37:02.051Z,58
2023-05-05T07:38:01.984Z,59
2023-05-05T07:39:01.914Z,59
2023-05-05T07:40:01.967Z,57
2023-05-05T07:41:01.994Z,59
2023-05-05T07:42:01.845Z,58
2023-05-05T07:43:01.859Z,56
2023-05-05T07:44:01.738Z,57
2023-05-05T07:45:01.808Z,56
2023-05-05T07:46:01.677Z,56
2023-05-05T07:47:01.858Z,57
2023-05-05T07:48:01.996Z,55
2023-05-05T07:49:01.799Z,57
2023-05-05T07:50:01.846Z,55
2023-05-05T07:51:01.904Z,56
2023-05-05T07:52:01.963Z,54
2023-05-05T07:53:15.022Z,55
2023-05-05T07:54:02.028Z,55
2023-05-05T07:55:02.056Z,55
2023-05-05T07:56:01.913Z,55
2023-05-05T07:57:01.968Z,55
2023-05-05T07:58:01.833Z,55
2023-05-05T07:59:01.873Z,56
2023-05-05T08:00:01.850Z,56
2023-05-05T08:01:01.919Z,54
2023-05-05T08:03:01.975Z,55
2023-05-05T08:04:02.148Z,56
2023-05-05T08:05:02.105Z,57
2023-05-05T08:06:02.225Z,54
2023-05-05T08:07:01.978Z,54
2023-05-05T08:08:01.934Z,54
2023-05-05T08:09:02.070Z,54
2023-05-05T08:10:01.802Z,53
2023-05-05T08:11:01.888Z,52
2023-05-05T08:12:01.785Z,53
2023-05-05T08:13:01.814Z,52
2023-05-05T08:14:01.672Z,55
2023-05-05T08:15:01.653Z,55
2023-05-05T08:16:01.606Z,54
2023-05-05T08:17:01.797Z,53
2023-05-05T08:18:01.939Z,52
2023-05-05T08:19:01.716Z,51
2023-05-05T08:20:01.722Z,51
2023-05-05T08:21:01.616Z,52
2023-05-05T08:22:01.965Z,54
2023-05-05T08:23:01.637Z,53
2023-05-05T08:24:01.676Z,52
2023-05-05T08:25:01.500Z,53
2023-05-05T08:26:01.537Z,53
2023-05-05T08:27:02.524Z,53
2023-05-05T08:28:02.401Z,52
2023-05-05T08:29:02.438Z,53
2023-05-05T08:30:02.316Z,54
2023-05-05T08:31:02.486Z,51
2023-05-05T08:33:01.880Z,61
2023-05-05T08:34:01.760Z,51
2023-05-05T08:35:01.806Z,51
2023-05-05T08:36:01.660Z,51
2023-05-05T08:37:01.707Z,51
2023-05-05T08:38:01.525Z,55
2023-05-05T08:39:01.539Z,50
2023-05-05T08:40:02.490Z,50
2023-05-05T08:41:02.380Z,50
2023-05-05T08:42:02.474Z,50
2023-05-05T08:43:02.328Z,51
2023-05-05T08:44:02.583Z,50
2023-05-05T08:45:02.156Z,49
2023-05-05T08:46:02.195Z,49
2023-05-05T08:47:02.488Z,48
2023-05-05T08:48:02.477Z,49
2023-05-05T08:49:02.297Z,49
2023-05-05T08:50:02.330Z,50
2023-05-05T08:51:05.776Z,50
2023-05-05T08:52:01.492Z,50
2023-05-05T08:53:01.750Z,49
2023-05-05T08:54:01.540Z,50
2023-05-05T08:55:01.759Z,49
2023-05-05T08:56:01.695Z,49
2023-05-05T08:57:01.689Z,47
2023-05-05T08:58:01.558Z,49
2023-05-05T08:59:01.572Z,47
2023-05-05T09:00:02.491Z,50
2023-05-05T09:01:02.509Z,50
2023-05-05T09:03:02.148Z,48
2023-05-05T09:04:01.983Z,45
2023-05-05T09:05:01.936Z,45
2023-05-05T09:06:01.970Z,45
2023-05-05T09:07:01.836Z,46
2023-05-05T09:08:01.826Z,46
2023-05-05T09:09:01.714Z,50
2023-05-05T09:10:01.780Z,50
2023-05-05T09:11:01.589Z,51
2023-05-05T09:12:01.627Z,51
2023-05-05T09:13:01.692Z,49
2023-05-05T09:14:02.535Z,49
2023-05-05T09:15:02.438Z,48
2023-05-05T09:16:02.526Z,47
2023-05-05T09:18:01.643Z,46
2023-05-05T09:19:02.525Z,46
2023-05-05T09:20:02.412Z,45
2023-05-05T09:21:02.476Z,45
2023-05-05T09:22:02.345Z,45
2023-05-05T09:23:02.469Z,45
2023-05-05T09:24:09.229Z,47
2023-05-05T09:25:02.411Z,47
2023-05-05T09:26:02.522Z,46
2023-05-05T09:27:02.371Z,46
2023-05-05T09:28:02.458Z,47
2023-05-05T09:29:02.328Z,46
2023-05-05T09:30:02.408Z,47
2023-05-05T09:31:02.392Z,48
2023-05-05T09:33:02.595Z,48
2023-05-05T09:34:02.417Z,47
2023-05-05T09:35:02.507Z,48
2023-05-05T09:36:02.384Z,45
2023-05-05T09:37:02.423Z,45
2023-05-05T09:38:02.278Z,43
2023-05-05T09:39:02.366Z,44
2023-05-05T09:40:02.250Z,44
2023-05-05T09:41:02.304Z,47
2023-05-05T09:42:02.246Z,46
2023-05-05T09:43:02.117Z,45
2023-05-05T09:44:02.062Z,45
2023-05-05T09:45:01.998Z,45
2023-05-05T09:46:02.333Z,47
2023-05-05T09:47:12.137Z,43
2023-05-05T09:48:02.080Z,45
2023-05-05T09:49:02.193Z,44
2023-05-05T09:50:02.013Z,44
2023-05-05T09:51:01.880Z,44
2023-05-05T09:52:01.931Z,45
2023-05-05T09:53:01.965Z,46
2023-05-05T09:54:01.768Z,44
2023-05-05T09:55:01.821Z,45
2023-05-05T09:56:01.669Z,43
2023-05-05T09:57:01.698Z,46
2023-05-05T09:58:01.608Z,43
2023-05-05T09:59:01.598Z,43
2023-05-05T10:00:02.792Z,43
2023-05-05T10:01:01.505Z,43
2023-05-05T10:02:02.322Z,42
2023-05-05T10:03:02.303Z,42
2023-05-05T10:04:02.005Z,42
2023-05-05T10:05:02.819Z,43
2023-05-05T10:06:01.688Z,43
2023-05-05T10:07:01.499Z,42
2023-05-05T10:08:01.569Z,42
2023-05-05T10:09:01.396Z,42
2023-05-05T10:10:02.548Z,41
2023-05-05T10:11:02.310Z,42
2023-05-05T10:12:02.363Z,41
2023-05-05T10:13:02.371Z,40
2023-05-05T10:14:02.349Z,41
2023-05-05T10:15:02.172Z,42
2023-05-05T10:16:02.308Z,41
2023-05-05T10:18:08.525Z,42
2023-05-05T10:19:02.501Z,40
2023-05-05T10:20:02.413Z,41
2023-05-05T10:21:02.563Z,41
2023-05-05T10:22:02.439Z,41
2023-05-05T10:23:02.486Z,40
2023-05-05T10:24:02.349Z,40
2023-05-05T10:25:02.462Z,40
2023-05-05T10:26:02.230Z,40
2023-05-05T10:27:02.244Z,41
2023-05-05T10:28:02.155Z,41
2023-05-05T10:29:02.258Z,41
2023-05-05T10:30:02.287Z,41
2023-05-05T10:31:04.228Z,42
2023-05-05T10:34:02.432Z,40
2023-05-05T10:35:02.381Z,41
2023-05-05T10:36:02.581Z,39
2023-05-05T10:37:02.339Z,41
2023-05-05T10:38:02.430Z,40
2023-05-05T10:39:02.283Z,40
2023-05-05T10:40:02.364Z,40
2023-05-05T10:41:02.558Z,39
2023-05-05T10:42:02.596Z,39
2023-05-05T10:43:02.322Z,39
2023-05-05T10:44:04.900Z,39
2023-05-05T10:45:01.740Z,40
2023-05-05T10:46:01.686Z,39
2023-05-05T10:47:01.559Z,39
2023-05-05T10:48:01.759Z,40
2023-05-05T10:49:01.644Z,39
2023-05-05T10:50:01.634Z,40
2023-05-05T10:51:01.469Z,38
2023-05-05T10:52:02.484Z,39
2023-05-05T10:53:02.398Z,41
2023-05-05T10:54:02.529Z,41
2023-05-05T10:55:02.520Z,41
2023-05-05T10:56:02.362Z,41
2023-05-05T10:57:02.298Z,42
2023-05-05T10:58:02.326Z,40
2023-05-05T10:59:02.216Z,39
2023-05-05T11:00:02.268Z,38
2023-05-05T11:01:02.355Z,39
2023-05-05T11:02:02.203Z,37
2023-05-05T11:03:02.396Z,40
2023-05-05T11:04:02.362Z,38
2023-05-05T11:05:02.210Z,39
2023-05-05T11:06:02.255Z,38
2023-05-05T11:07:02.068Z,38
2023-05-05T11:08:02.026Z,39
2023-05-05T11:09:02.131Z,39
2023-05-05T11:10:02.281Z,41
2023-05-05T11:11:01.966Z,39
2023-05-05T11:12:02.019Z,39
2023-05-05T11:13:01.989Z,39
2023-05-05T11:14:01.914Z,39
2023-05-05T11:15:01.945Z,40
2023-05-05T11:16:01.821Z,38
2023-05-05T11:17:02.016Z,39
2023-05-05T11:18:07.726Z,37
2023-05-05T11:19:01.430Z,37
2023-05-05T11:20:02.607Z,36
2023-05-05T11:21:02.384Z,37
2023-05-05T11:22:02.472Z,37
2023-05-05T11:23:02.459Z,37
2023-05-05T11:24:02.384Z,40
2023-05-05T11:25:02.231Z,39
2023-05-05T11:26:02.263Z,39
2023-05-05T11:27:02.073Z,41
2023-05-05T11:28:02.019Z,39
2023-05-05T11:29:02.081Z,41
2023-05-05T11:30:02.007Z,40
2023-05-05T11:32:01.688Z,40
2023-05-05T11:33:01.648Z,39
2023-05-05T11:34:01.585Z,38
2023-05-05T11:35:02.550Z,39
2023-05-05T11:36:06.915Z,38
2023-05-05T11:37:02.116Z,38
2023-05-05T11:38:02.166Z,38
2023-05-05T11:39:02.034Z,39
2023-05-05T11:40:01.988Z,37
2023-05-05T11:41:02.055Z,37
2023-05-05T11:42:10.606Z,38
2023-05-05T11:43:01.658Z,37
2023-05-05T11:44:01.649Z,37
2023-05-05T11:45:01.523Z,37
2023-05-05T11:46:01.505Z,37
2023-05-05T11:47:02.545Z,35
2023-05-05T11:48:02.491Z,38
2023-05-05T11:49:02.498Z,36
2023-05-05T11:50:02.384Z,37
2023-05-05T11:51:02.510Z,36
2023-05-05T11:52:02.418Z,37
2023-05-05T11:53:02.449Z,37
2023-05-05T11:54:02.442Z,38
2023-05-05T11:55:02.514Z,38
2023-05-05T11:56:02.335Z,37
2023-05-05T11:57:02.379Z,36
2023-05-05T11:58:02.270Z,36
2023-05-05T11:59:02.323Z,36
2023-05-05T12:00:02.226Z,37
2023-05-05T12:01:02.079Z,37
2023-05-05T12:02:02.090Z,36
2023-05-05T12:03:02.396Z,37
2023-05-05T12:04:02.625Z,36
2023-05-05T12:05:01.765Z,36
2023-05-05T12:06:01.551Z,36
2023-05-05T12:07:01.594Z,35
2023-05-05T12:08:01.535Z,36
2023-05-05T12:09:02.534Z,37
2023-05-05T12:10:02.484Z,38
2023-05-05T12:11:01.604Z,38
2023-05-05T12:12:01.644Z,40
2023-05-05T12:13:02.572Z,37
2023-05-05T12:14:02.421Z,38
2023-05-05T12:15:02.565Z,37
2023-05-05T12:16:02.507Z,38
2023-05-05T12:17:02.445Z,39
2023-05-05T12:18:03.850Z,36
2023-05-05T12:19:01.544Z,36
2023-05-05T12:20:01.608Z,37
2023-05-05T12:21:01.530Z,38
2023-05-05T12:22:02.575Z,38
2023-05-05T12:23:02.391Z,38
2023-05-05T12:24:02.437Z,37
2023-05-05T12:25:02.309Z,37
2023-05-05T12:26:02.406Z,36
2023-05-05T12:27:02.299Z,36
2023-05-05T12:28:02.395Z,36
2023-05-05T12:29:02.361Z,35
2023-05-05T12:30:02.319Z,35
2023-05-05T12:31:02.417Z,36
2023-05-05T12:32:02.549Z,35
2023-05-05T12:33:02.390Z,35
2023-05-05T12:34:02.348Z,36
2023-05-05T12:35:02.247Z,36
2023-05-05T12:36:02.279Z,37
2023-05-05T12:37:02.225Z,37
2023-05-05T12:38:02.250Z,37
2023-05-05T12:39:02.083Z,38
2023-05-05T12:40:02.073Z,36
2023-05-05T12:41:02.102Z,37
2023-05-05T12:42:01.918Z,36
2023-05-05T12:43:01.970Z,37
2023-05-05T12:44:01.821Z,36
2023-05-05T12:45:01.888Z,35
2023-05-05T12:46:01.865Z,35
2023-05-05T12:47:01.763Z,36
2023-05-05T12:48:01.802Z,35
2023-05-05T12:49:01.728Z,35
2023-05-05T12:50:01.578Z,37
2023-05-05T12:51:01.622Z,34
2023-05-05T12:52:01.545Z,34
2023-05-05T12:53:02.510Z,35
2023-05-05T12:54:02.475Z,35
2023-05-05T12:55:02.474Z,36
2023-05-05T12:56:02.295Z,36
2023-05-05T12:57:02.352Z,36
2023-05-05T12:58:02.287Z,37
2023-05-05T12:59:02.306Z,37
2023-05-05T13:00:02.209Z,37
2023-05-05T13:01:02.158Z,36
2023-05-05T13:02:02.288Z,38
2023-05-05T13:03:02.176Z,38
2023-05-05T13:04:02.053Z,36
2023-05-05T13:05:02.168Z,36
2023-05-05T13:06:01.920Z,37
2023-05-05T13:07:01.997Z,36
2023-05-05T13:08:01.847Z,36
2023-05-05T13:09:01.850Z,36
2023-05-05T13:10:01.766Z,35
2023-05-05T13:11:01.826Z,36
2023-05-05T13:12:01.696Z,36
2023-05-05T13:13:01.808Z,36
2023-05-05T13:14:01.588Z,36
2023-05-05T13:15:01.593Z,36
2023-05-05T13:16:02.423Z,38
2023-05-05T13:17:02.488Z,37
2023-05-05T13:18:01.993Z,37
2023-05-05T13:19:01.684Z,36
2023-05-05T13:20:01.780Z,37
2023-05-05T13:21:01.707Z,36
2023-05-05T13:22:01.678Z,36
2023-05-05T13:23:01.524Z,36
2023-05-05T13:24:28.506Z,36
2023-05-05T13:25:02.321Z,37
2023-05-05T13:26:02.204Z,36
2023-05-05T13:27:02.279Z,37
2023-05-05T13:28:02.224Z,35
2023-05-05T13:29:02.025Z,36
2023-05-05T13:30:02.124Z,37
2023-05-05T13:31:02.063Z,37
2023-05-05T13:32:02.104Z,38
2023-05-05T13:33:02.044Z,38
2023-05-05T13:34:01.870Z,37
2023-05-05T13:35:01.816Z,36
2023-05-05T13:36:01.751Z,37
2023-05-05T13:37:01.763Z,38
2023-05-05T13:38:01.699Z,37
2023-05-05T13:39:01.698Z,36
2023-05-05T13:40:01.661Z,36
2023-05-05T13:41:01.617Z,35
2023-05-05T13:42:01.516Z,35
2023-05-05T13:43:01.493Z,34
2023-05-05T13:44:02.390Z,36
2023-05-05T13:45:02.333Z,35
2023-05-05T13:46:19.934Z,35
2023-05-05T13:47:02.163Z,36
2023-05-05T13:48:02.059Z,35
2023-05-05T13:49:01.946Z,35
2023-05-05T13:50:02.058Z,35
2023-05-05T13:51:01.836Z,35
2023-05-05T13:52:01.825Z,35
2023-05-05T13:53:01.751Z,35
2023-05-05T13:54:01.803Z,35
2023-05-05T13:55:01.829Z,35
2023-05-05T13:56:01.706Z,36
2023-05-05T13:57:01.610Z,35
2023-05-05T13:58:01.609Z,36
2023-05-05T13:59:01.534Z,36
2023-05-05T14:00:01.864Z,38
2023-05-05T14:01:01.953Z,37
2023-05-05T14:02:01.853Z,37
2023-05-05T14:03:01.954Z,36
2023-05-05T14:04:06.008Z,37
2023-05-05T14:05:01.962Z,37
2023-05-05T14:06:01.968Z,37
2023-05-05T14:07:01.953Z,37
2023-05-05T14:08:01.806Z,37
2023-05-05T14:09:01.928Z,37
2023-05-05T14:10:01.775Z,37
2023-05-05T14:11:01.745Z,37
2023-05-05T14:12:01.590Z,37
2023-05-05T14:13:01.695Z,37
2023-05-05T14:14:01.485Z,38
2023-05-05T14:15:02.573Z,37
2023-05-05T14:16:02.476Z,39
2023-05-05T14:17:02.634Z,36
2023-05-05T14:18:01.526Z,37
2023-05-05T14:19:02.509Z,37
2023-05-05T14:20:02.409Z,39
2023-05-05T14:21:02.522Z,37
2023-05-05T14:22:02.382Z,37
2023-05-05T14:23:02.440Z,38